Songkhla, Thailand
Current Conditions -  °F | °C
As of 1:30 PM on Thursday 23 Oct 2014 (Local Time) from VTSS Reporting Station
Broken Clouds Broken Clouds  
Wind Chill: 86°   Ceiling: 12000
Heat Index: 97°   Visibility: 6mi
Dew Point: 77°   Wind: 9mph
Humidity: 74%   Direction: 350°N
Pressure: 29.83"   Gusts: NA
Location:  7.21°N, 100.56°E
Report Text: VTSS 230630Z 35008KT 9999 FEW018CB SCT020 BKN120 30/25 Q1010 A2984 NOSIG
Loading
Personal Weather Stations






























Interactive Weather Map
Tropical Storm Tracking
New forecast layout! Learn more

10-Day Weather Forecast

Advertisements
Track Severe Weather on mobile